VOI2484 MMTM-MMSD
Flight info
| Callsign | VOI2484 |
|---|---|
| Flight time | N/A |
| Altitude | 36000 |
| Route | TAKLA UJ46 TTM DCT ZCL DCT TENAY TENAY1A |
| Aircraft | A321/M-SDE3FGHIRWY/LB1 |
Departure
| Time | 2026-05-05 01:59 |
|---|---|
| Airport | General Francisco Javier Mina International Airport (MMTM) |
Arrival
| Time | N/A |
|---|---|
| Airport | Los Cabos International Airport (MMSD) |
| Time | Latitude | Longitude | Altitude | Speed | Heading |
|---|---|---|---|---|---|
| 2026-05-05 01:57 | 22.29912 | -97.87189 | 101 ft | 29 kts | 325° |
| 2026-05-05 01:58 | 22.30079 | -97.87314 | 101 ft | 29 kts | 326° |
| 2026-05-05 01:58 | 22.30142 | -97.87421 | 100 ft | 10 kts | 297° |
| 2026-05-05 01:58 | 22.30178 | -97.87407 | 101 ft | 6 kts | 92° |
| 2026-05-05 01:58 | 22.30155 | -97.87378 | 101 ft | 6 kts | 140° |
| 2026-05-05 01:59 | 22.30017 | -97.87270 | 100 ft | 58 kts | 142° |
| 2026-05-05 01:59 | 22.29496 | -97.86874 | 99 ft | 122 kts | 146° |
| 2026-05-05 01:59 | 22.28663 | -97.86248 | 179 ft | 160 kts | 142° |
| 2026-05-05 01:59 | 22.27743 | -97.85602 | 881 ft | 158 kts | 144° |
| 2026-05-05 02:00 | 22.26805 | -97.84973 | 1483 ft | 160 kts | 145° |
| 2026-05-05 02:00 | 22.25815 | -97.84368 | 1922 ft | 169 kts | 161° |
| 2026-05-05 02:00 | 22.24624 | -97.84495 | 2335 ft | 183 kts | 203° |
| 2026-05-05 02:00 | 22.23752 | -97.85542 | 2773 ft | 203 kts | 244° |
| 2026-05-05 02:01 | 22.23756 | -97.87138 | 3083 ft | 224 kts | 283° |
| 2026-05-05 02:01 | 22.24383 | -97.88746 | 3292 ft | 244 kts | 295° |
| 2026-05-05 02:01 | 22.25233 | -97.90391 | 3743 ft | 253 kts | 299° |
| 2026-05-05 02:01 | 22.26136 | -97.92032 | 4448 ft | 254 kts | 300° |
| 2026-05-05 02:02 | 22.27033 | -97.93681 | 5135 ft | 255 kts | 300° |
| 2026-05-05 02:02 | 22.27908 | -97.95336 | 5868 ft | 252 kts | 300° |
| 2026-05-05 02:02 | 22.28745 | -97.96960 | 6577 ft | 249 kts | 300° |
| 2026-05-05 02:02 | 22.29571 | -97.98599 | 7165 ft | 248 kts | 299° |
| 2026-05-05 02:03 | 22.30389 | -98.00242 | 7741 ft | 248 kts | 298° |
| 2026-05-05 02:03 | 22.31204 | -98.01894 | 8281 ft | 250 kts | 298° |
| 2026-05-05 02:03 | 22.32022 | -98.03556 | 8834 ft | 250 kts | 298° |
| 2026-05-05 02:03 | 22.32843 | -98.05227 | 9350 ft | 252 kts | 297° |
| 2026-05-05 02:04 | 22.33668 | -98.06907 | 9859 ft | 254 kts | 297° |
| 2026-05-05 02:04 | 22.34498 | -98.08602 | 10311 ft | 256 kts | 297° |
| 2026-05-05 02:04 | 22.35325 | -98.10292 | 10757 ft | 258 kts | 297° |
| 2026-05-05 02:04 | 22.36168 | -98.12018 | 11207 ft | 260 kts | 297° |
| 2026-05-05 02:05 | 22.37018 | -98.13755 | 11663 ft | 262 kts | 297° |
| 2026-05-05 02:05 | 22.37873 | -98.15502 | 12122 ft | 264 kts | 297° |
| 2026-05-05 02:05 | 22.38736 | -98.17266 | 12582 ft | 266 kts | 296° |
| 2026-05-05 02:05 | 22.39602 | -98.19042 | 13049 ft | 268 kts | 296° |
| 2026-05-05 02:06 | 22.40474 | -98.20836 | 13511 ft | 270 kts | 296° |
| 2026-05-05 02:06 | 22.41352 | -98.22641 | 13955 ft | 272 kts | 296° |
| 2026-05-05 02:06 | 22.42237 | -98.24453 | 14386 ft | 273 kts | 297° |
| 2026-05-05 02:06 | 22.43130 | -98.26278 | 14802 ft | 275 kts | 297° |
| 2026-05-05 02:07 | 22.44014 | -98.28114 | 15236 ft | 276 kts | 295° |
| 2026-05-05 02:07 | 22.44739 | -98.30013 | 15650 ft | 278 kts | 291° |
| 2026-05-05 02:07 | 22.45438 | -98.31965 | 16092 ft | 279 kts | 291° |
| 2026-05-05 02:07 | 22.46144 | -98.33933 | 16533 ft | 281 kts | 291° |
| 2026-05-05 02:08 | 22.46851 | -98.35905 | 16965 ft | 282 kts | 292° |
| 2026-05-05 02:08 | 22.47563 | -98.37889 | 17392 ft | 284 kts | 292° |
| 2026-05-05 02:08 | 22.48280 | -98.39888 | 17821 ft | 286 kts | 292° |
| 2026-05-05 02:08 | 22.48999 | -98.41899 | 18247 ft | 288 kts | 292° |
| 2026-05-05 02:09 | 22.49725 | -98.43925 | 18619 ft | 290 kts | 292° |
| 2026-05-05 02:09 | 22.50457 | -98.45966 | 18973 ft | 291 kts | 292° |
| 2026-05-05 02:09 | 22.51193 | -98.48019 | 19343 ft | 293 kts | 292° |
| 2026-05-05 02:09 | 22.51934 | -98.50088 | 19708 ft | 295 kts | 292° |
| 2026-05-05 02:10 | 22.52677 | -98.52162 | 20070 ft | 297 kts | 292° |
| 2026-05-05 02:10 | 22.53424 | -98.54251 | 20429 ft | 298 kts | 292° |
| 2026-05-05 02:10 | 22.54163 | -98.56325 | 20780 ft | 300 kts | 291° |
| 2026-05-05 02:10 | 22.54918 | -98.58438 | 21130 ft | 302 kts | 292° |
| 2026-05-05 02:11 | 22.55680 | -98.60567 | 21472 ft | 304 kts | 292° |
| 2026-05-05 02:11 | 22.56444 | -98.62705 | 21816 ft | 305 kts | 291° |
| 2026-05-05 02:11 | 22.57212 | -98.64858 | 22162 ft | 307 kts | 291° |
| 2026-05-05 02:11 | 22.57983 | -98.67020 | 22494 ft | 309 kts | 291° |
| 2026-05-05 02:12 | 22.58759 | -98.69198 | 22818 ft | 311 kts | 291° |
| 2026-05-05 02:12 | 22.60325 | -98.73589 | 23468 ft | 314 kts | 291° |